createdAt,value
2019-03-09T00:01:28.035Z,26.77
2019-03-09T00:03:59.682Z,29.63
2019-03-09T00:06:30.202Z,24.07
2019-03-09T00:09:00.739Z,22.33
2019-03-09T00:11:34.007Z,22.63
2019-03-09T00:14:04.721Z,23.87
2019-03-09T00:16:36.613Z,25.30
2019-03-09T00:19:07.633Z,27.37
2019-03-09T00:21:39.519Z,53.40
2019-03-09T00:24:17.365Z,37.00
2019-03-09T00:26:50.814Z,34.33
2019-03-09T00:29:22.726Z,27.27
2019-03-09T00:32:01.570Z,25.53
2019-03-09T00:34:33.047Z,20.50
2019-03-09T00:37:03.574Z,25.03
2019-03-09T00:39:34.117Z,31.73
2019-03-09T00:42:05.558Z,31.70
2019-03-09T00:44:37.017Z,26.53
2019-03-09T00:47:08.464Z,23.80
2019-03-09T00:49:39.917Z,27.97
2019-03-09T00:52:11.356Z,20.60
2019-03-09T00:54:41.892Z,22.13
2019-03-09T00:57:12.425Z,16.90
2019-03-09T00:59:42.969Z,20.20
2019-03-09T01:02:14.410Z,19.07
2019-03-09T01:04:44.952Z,18.03
2019-03-09T01:07:15.493Z,28.30
2019-03-09T01:09:46.934Z,41.23
2019-03-09T01:12:19.296Z,34.70
2019-03-09T01:14:51.250Z,31.93
2019-03-09T01:17:21.582Z,24.90
2019-03-09T01:19:53.052Z,23.17
2019-03-09T01:22:23.571Z,21.80
2019-03-09T01:24:54.111Z,22.00
2019-03-09T01:27:25.535Z,22.07
2019-03-09T01:29:55.807Z,28.53
2019-03-09T01:32:27.210Z,17.83
2019-03-09T01:34:59.604Z,21.40
2019-03-09T01:37:31.034Z,22.07
2019-03-09T01:40:02.588Z,16.13
2019-03-09T01:42:36.101Z,22.27
2019-03-09T01:45:09.829Z,20.27
2019-03-09T01:47:40.211Z,25.20
2019-03-09T01:50:10.485Z,14.57
2019-03-09T01:52:40.979Z,22.73
2019-03-09T01:55:13.832Z,16.70
2019-03-09T01:57:44.185Z,18.90
2019-03-09T02:00:16.366Z,16.30
2019-03-09T02:02:46.773Z,23.30
2019-03-09T02:05:19.163Z,14.07
2019-03-09T02:07:50.603Z,18.93
2019-03-09T02:10:22.070Z,19.43
2019-03-09T02:12:53.504Z,20.10
2019-03-09T02:15:24.971Z,21.70
2019-03-09T02:17:56.404Z,17.83
2019-03-09T02:20:27.872Z,19.10
2019-03-09T02:22:59.305Z,17.67
2019-03-09T02:25:30.779Z,20.40
2019-03-09T02:28:01.292Z,15.43
2019-03-09T02:30:34.004Z,13.77
2019-03-09T02:33:05.415Z,17.40
2019-03-09T02:35:37.812Z,18.20
2019-03-09T02:38:12.460Z,16.90
2019-03-09T02:40:42.867Z,19.33
2019-03-09T02:43:14.300Z,20.23
2019-03-09T02:45:44.572Z,18.43
2019-03-09T02:48:15.970Z,17.00
2019-03-09T02:50:56.609Z,15.73
2019-03-09T02:53:27.327Z,20.67
2019-03-09T02:55:57.712Z,20.03
2019-03-09T02:58:29.142Z,16.77
2019-03-09T03:01:05.330Z,16.90
2019-03-09T03:03:35.745Z,16.27
2019-03-09T03:06:06.290Z,25.60
2019-03-09T03:08:38.950Z,25.53
2019-03-09T03:11:10.409Z,21.90
2019-03-09T03:13:41.843Z,16.97
2019-03-09T03:16:13.680Z,16.63
2019-03-09T03:18:45.052Z,19.43
2019-03-09T03:21:15.360Z,21.30
2019-03-09T03:23:47.657Z,22.33
2019-03-09T03:26:19.123Z,20.30
2019-03-09T03:28:50.565Z,21.23
2019-03-09T03:31:22.024Z,22.70
2019-03-09T03:33:52.539Z,25.40
2019-03-09T03:36:23.084Z,33.23
2019-03-09T03:38:54.522Z,35.03
2019-03-09T03:41:25.995Z,36.27
2019-03-09T03:43:57.429Z,34.63
2019-03-09T03:46:28.894Z,29.13
2019-03-09T03:49:00.326Z,30.70
2019-03-09T03:51:30.873Z,30.50
2019-03-09T03:54:02.309Z,24.43
2019-03-09T03:56:33.773Z,24.50
2019-03-09T03:59:07.766Z,25.00
2019-03-09T04:01:38.219Z,26.70
2019-03-09T04:04:08.745Z,28.67
2019-03-09T04:06:39.274Z,20.87
2019-03-09T04:09:10.707Z,15.27
2019-03-09T04:11:41.250Z,10.50
2019-03-09T04:14:11.773Z,13.43
2019-03-09T04:16:42.313Z,16.50
2019-03-09T04:19:12.841Z,12.07
2019-03-09T04:21:43.371Z,10.13
2019-03-09T04:24:13.891Z,11.73
2019-03-09T04:26:44.434Z,14.10
2019-03-09T04:29:14.942Z,15.60
2019-03-09T04:31:46.407Z,20.53
2019-03-09T04:34:17.858Z,11.60
2019-03-09T04:36:50.935Z,13.33
2019-03-09T04:39:21.361Z,14.23
2019-03-09T04:41:54.961Z,12.60
2019-03-09T04:44:27.166Z,14.60
2019-03-09T04:46:59.110Z,10.97
2019-03-09T04:49:29.634Z,14.23
2019-03-09T04:52:00.166Z,12.63
2019-03-09T04:54:30.684Z,10.83
2019-03-09T04:57:01.230Z,7.97
2019-03-09T04:59:31.740Z,9.67
2019-03-09T05:02:02.289Z,10.97
2019-03-09T05:04:42.146Z,8.67
2019-03-09T05:07:15.563Z,9.43
2019-03-09T05:10:06.907Z,7.13
2019-03-09T05:12:37.342Z,10.67
2019-03-09T05:15:13.082Z,11.60
2019-03-09T05:17:45.710Z,16.47
2019-03-09T05:20:17.147Z,14.10
2019-03-09T05:22:48.614Z,8.47
2019-03-09T05:25:19.126Z,13.93
2019-03-09T05:27:49.669Z,10.83
2019-03-09T05:30:39.019Z,17.10
2019-03-09T05:33:09.480Z,14.20
2019-03-09T05:35:39.998Z,13.77
2019-03-09T05:38:10.540Z,11.87
2019-03-09T05:40:41.040Z,12.70
2019-03-09T05:43:11.589Z,14.07
2019-03-09T05:45:42.106Z,11.57
2019-03-09T05:48:12.644Z,9.23
2019-03-09T05:50:44.082Z,12.57
2019-03-09T05:53:17.531Z,19.43
2019-03-09T05:55:47.910Z,15.37
2019-03-09T05:58:18.451Z,11.27
2019-03-09T06:00:48.973Z,15.47
2019-03-09T06:03:20.443Z,12.70
2019-03-09T06:05:52.030Z,18.93
2019-03-09T06:08:22.415Z,11.90
2019-03-09T06:10:52.939Z,16.57
2019-03-09T06:13:23.478Z,15.97
2019-03-09T06:15:54.007Z,51.87
2019-03-09T06:18:24.553Z,133.83
2019-03-09T06:20:55.987Z,119.70
2019-03-09T06:23:26.548Z,170.03
2019-03-09T06:25:57.043Z,196.90
2019-03-09T06:28:27.580Z,58.40
2019-03-09T06:30:59.010Z,33.27
2019-03-09T06:33:30.895Z,52.07
2019-03-09T06:36:10.011Z,76.00
2019-03-09T06:38:58.417Z,112.83
2019-03-09T06:41:40.920Z,61.83
2019-03-09T06:44:11.314Z,84.57
2019-03-09T06:46:41.843Z,45.90
2019-03-09T06:49:13.311Z,57.17
2019-03-09T06:51:45.334Z,18.40
2019-03-09T06:54:16.812Z,18.27
2019-03-09T06:56:48.260Z,13.63
2019-03-09T06:59:19.705Z,14.07
2019-03-09T07:01:52.382Z,12.53
2019-03-09T07:04:22.949Z,12.30
2019-03-09T07:06:54.395Z,27.50
2019-03-09T07:09:25.856Z,68.80
2019-03-09T07:11:57.295Z,136.30
2019-03-09T07:14:52.187Z,152.20
2019-03-09T07:17:22.586Z,86.30
2019-03-09T07:19:54.088Z,64.53
2019-03-09T07:22:24.611Z,89.10
2019-03-09T07:24:56.049Z,73.65
2019-03-09T07:27:28.584Z,57.67
2019-03-09T07:29:58.960Z,20.90
2019-03-09T07:32:30.697Z,16.40
2019-03-09T07:35:02.214Z,12.75
2019-03-09T07:37:32.673Z,9.95
2019-03-09T07:40:03.984Z,15.13
2019-03-09T07:42:35.574Z,16.00
2019-03-09T07:45:09.194Z,36.03
2019-03-09T07:47:39.458Z,29.98
2019-03-09T07:50:12.963Z,23.02
2019-03-09T07:52:45.910Z,17.27
2019-03-09T07:55:34.071Z,12.43
2019-03-09T07:58:05.904Z,17.70
2019-03-09T08:00:36.354Z,12.50
2019-03-09T08:03:10.077Z,12.75
2019-03-09T08:05:42.296Z,17.32
2019-03-09T08:08:12.802Z,11.93
2019-03-09T08:10:50.289Z,10.60
2019-03-09T08:16:13.018Z,14.95
2019-03-09T08:18:45.384Z,15.23
2019-03-09T08:21:16.738Z,14.28
2019-03-09T08:23:49.890Z,23.77
2019-03-09T08:26:22.339Z,21.48
2019-03-09T08:28:53.996Z,16.15
2019-03-09T08:31:25.494Z,12.45
2019-03-09T08:33:55.904Z,18.35
2019-03-09T08:36:26.861Z,15.68
2019-03-09T08:38:58.618Z,14.38
2019-03-09T08:41:29.032Z,14.77
2019-03-09T08:44:02.149Z,22.05
2019-03-09T08:46:32.573Z,11.50
2019-03-09T08:49:03.076Z,17.50
2019-03-09T08:51:34.547Z,20.17
2019-03-09T08:54:05.063Z,21.13
2019-03-09T08:56:35.977Z,17.20
2019-03-09T08:59:07.960Z,8.27
2019-03-09T09:01:38.708Z,18.23
2019-03-09T09:04:27.551Z,15.83
2019-03-09T09:06:59.210Z,20.20
2019-03-09T09:09:30.989Z,14.57
2019-03-09T09:12:03.684Z,17.27
2019-03-09T09:14:35.115Z,16.67
2019-03-09T09:17:05.645Z,15.03
2019-03-09T09:19:35.869Z,16.73
2019-03-09T09:22:06.922Z,16.30
2019-03-09T09:24:38.464Z,12.50
2019-03-09T09:27:09.021Z,13.23
2019-03-09T09:29:40.279Z,14.87
2019-03-09T09:32:13.754Z,22.35
2019-03-09T09:34:44.550Z,19.43
2019-03-09T09:37:15.420Z,14.70
2019-03-09T09:39:46.444Z,17.30
2019-03-09T09:42:21.682Z,21.10
2019-03-09T09:44:53.193Z,20.83
2019-03-09T09:47:26.272Z,22.00
2019-03-09T09:50:00.664Z,13.97
2019-03-09T09:52:36.444Z,17.27
2019-03-09T09:55:11.184Z,12.60
2019-03-09T09:57:41.487Z,11.77
2019-03-09T10:00:26.300Z,11.20
2019-03-09T10:02:56.664Z,14.27
2019-03-09T10:05:29.072Z,7.60
2019-03-09T10:07:59.594Z,7.30
2019-03-09T10:10:30.135Z,8.70
2019-03-09T10:13:02.447Z,11.60
2019-03-09T10:15:34.493Z,14.47
2019-03-09T10:18:06.020Z,8.20
2019-03-09T10:20:37.988Z,10.47
2019-03-09T10:23:10.411Z,7.00
2019-03-09T10:25:41.951Z,9.70
2019-03-09T10:28:14.005Z,10.70
2019-03-09T10:30:44.441Z,18.83
2019-03-09T10:33:14.697Z,10.33
2019-03-09T10:35:46.124Z,12.00
2019-03-09T10:38:16.368Z,13.60
2019-03-09T10:40:48.245Z,12.20
2019-03-09T10:43:18.762Z,14.10
2019-03-09T10:45:50.235Z,17.60
2019-03-09T10:48:20.591Z,15.20
2019-03-09T10:50:50.861Z,11.67
2019-03-09T10:53:22.290Z,11.50
2019-03-09T10:55:53.870Z,11.50
2019-03-09T10:58:24.252Z,8.50
2019-03-09T11:00:54.527Z,9.30
2019-03-09T11:03:26.076Z,14.97
2019-03-09T11:05:56.483Z,11.93
2019-03-09T11:08:28.822Z,12.13
2019-03-09T11:10:59.389Z,12.37
2019-03-09T11:13:29.903Z,10.63
2019-03-09T11:16:00.568Z,19.13
2019-03-09T11:18:30.957Z,12.43
2019-03-09T11:21:01.512Z,10.53
2019-03-09T11:23:34.510Z,13.05
2019-03-09T11:26:05.045Z,8.05
2019-03-09T11:28:35.683Z,8.70
2019-03-09T11:31:06.109Z,12.90
2019-03-09T11:33:37.527Z,9.78
2019-03-09T11:36:09.621Z,11.22
2019-03-09T11:38:41.026Z,20.57
2019-03-09T11:41:18.787Z,28.57
2019-03-09T11:43:44.330Z,18.42
2019-03-09T11:46:14.884Z,16.35
2019-03-09T11:48:48.503Z,16.85
2019-03-09T11:51:19.136Z,12.43
2019-03-09T11:53:50.037Z,12.68
2019-03-09T11:56:21.599Z,10.35
2019-03-09T11:58:52.021Z,11.65
2019-03-09T12:01:23.269Z,8.05
2019-03-09T12:03:53.706Z,11.73
2019-03-09T12:06:25.185Z,8.90
2019-03-09T12:08:56.604Z,9.80
2019-03-09T12:11:27.756Z,7.10
2019-03-09T12:13:58.890Z,8.40
2019-03-09T12:16:29.447Z,3.67
2019-03-09T12:19:01.178Z,4.35
2019-03-09T12:21:33.775Z,7.72
2019-03-09T12:24:04.122Z,6.15
2019-03-09T12:26:34.461Z,8.15
2019-03-09T12:29:04.835Z,4.12
2019-03-09T12:31:36.354Z,13.68
2019-03-09T12:34:06.833Z,7.80
2019-03-09T12:36:37.378Z,4.67
2019-03-09T12:39:10.038Z,1.90
2019-03-09T12:41:42.444Z,8.15
2019-03-09T12:44:12.931Z,5.45
2019-03-09T12:46:43.480Z,7.37
2019-03-09T12:49:15.529Z,7.92
2019-03-09T12:51:46.224Z,6.78
2019-03-09T12:54:16.602Z,9.70
2019-03-09T12:56:46.907Z,6.12
2019-03-09T12:59:19.845Z,5.58
2019-03-09T13:01:57.859Z,9.50
2019-03-09T13:04:30.270Z,9.83
2019-03-09T13:07:02.143Z,9.10
2019-03-09T13:09:32.393Z,9.28
2019-03-09T13:12:03.833Z,6.62
2019-03-09T13:14:34.338Z,6.87
2019-03-09T13:17:06.200Z,7.75
2019-03-09T13:19:36.730Z,11.63
2019-03-09T13:22:08.456Z,10.63
2019-03-09T13:24:40.977Z,16.35
2019-03-09T13:27:11.925Z,14.70
2019-03-09T13:29:44.589Z,11.90
2019-03-09T13:32:15.144Z,10.13
2019-03-09T13:34:46.568Z,11.45
2019-03-09T13:37:16.846Z,5.78
2019-03-09T13:39:47.319Z,7.80
2019-03-09T13:42:17.866Z,8.75
2019-03-09T13:44:48.387Z,6.70
2019-03-09T13:47:19.856Z,10.55
2019-03-09T13:49:51.011Z,6.62
2019-03-09T13:52:21.765Z,14.70
2019-03-09T13:54:52.110Z,6.03
2019-03-09T13:57:22.663Z,6.35
2019-03-09T13:59:53.234Z,11.15
2019-03-09T14:02:23.682Z,6.22
2019-03-09T14:04:57.278Z,9.28
2019-03-09T14:07:27.874Z,7.40
2019-03-09T14:09:58.302Z,4.55
2019-03-09T14:12:31.954Z,7.50
2019-03-09T14:15:02.511Z,6.62
2019-03-09T14:17:32.995Z,7.47
2019-03-09T14:20:05.587Z,10.35
2019-03-09T14:22:36.489Z,7.90
2019-03-09T14:25:09.324Z,7.10
2019-03-09T14:27:41.219Z,6.42
2019-03-09T14:30:14.354Z,7.37
2019-03-09T14:32:47.518Z,4.65
2019-03-09T14:35:19.039Z,7.33
2019-03-09T14:37:51.035Z,5.65
2019-03-09T14:40:22.772Z,6.08
2019-03-09T14:42:54.244Z,6.65
2019-03-09T14:45:24.573Z,8.88
2019-03-09T14:47:54.997Z,9.78
2019-03-09T14:50:25.516Z,15.68
2019-03-09T14:52:56.974Z,13.30
2019-03-09T14:55:27.490Z,15.28
2019-03-09T14:57:58.948Z,15.38
2019-03-09T15:00:30.391Z,13.13
2019-03-09T15:03:00.936Z,14.70
2019-03-09T15:05:31.446Z,14.63
2019-03-09T15:08:02.927Z,9.78
2019-03-09T15:10:34.340Z,12.15
2019-03-09T15:13:06.427Z,10.58
2019-03-09T15:15:36.703Z,8.90
2019-03-09T15:18:08.701Z,8.48
2019-03-09T15:20:39.232Z,10.00
2019-03-09T15:23:09.787Z,13.55
2019-03-09T15:25:41.208Z,5.22
2019-03-09T15:28:14.023Z,11.35
2019-03-09T15:30:45.953Z,11.90
2019-03-09T15:33:17.498Z,17.17
2019-03-09T15:36:01.797Z,15.03
2019-03-09T15:38:37.443Z,12.03
2019-03-09T15:41:10.306Z,10.20
2019-03-09T15:43:40.985Z,18.20
2019-03-09T15:46:11.631Z,17.85
2019-03-09T15:48:42.125Z,16.73
2019-03-09T15:51:12.613Z,15.83
2019-03-09T15:53:44.093Z,16.42
2019-03-09T15:56:18.425Z,22.95
2019-03-09T15:58:48.822Z,15.45
2019-03-09T16:01:19.358Z,10.30
2019-03-09T16:03:50.948Z,10.72
2019-03-09T16:06:21.368Z,21.02
2019-03-09T16:08:51.905Z,21.90
2019-03-09T16:11:23.822Z,11.65
2019-03-09T16:13:55.124Z,9.98
2019-03-09T16:16:25.631Z,14.38
2019-03-09T16:18:57.745Z,18.00
2019-03-09T16:21:29.505Z,27.75
2019-03-09T16:24:00.127Z,27.07
2019-03-09T16:26:30.872Z,25.30
2019-03-09T16:29:04.030Z,27.02
2019-03-09T16:31:34.643Z,26.95
2019-03-09T16:34:06.778Z,21.37
2019-03-09T16:36:41.618Z,37.90
2019-03-09T16:39:15.330Z,37.78
2019-03-09T16:41:45.740Z,46.02
2019-03-09T16:44:17.541Z,46.53
2019-03-09T16:46:48.308Z,53.42
2019-03-09T16:49:20.422Z,59.10
2019-03-09T16:51:50.896Z,53.60
2019-03-09T16:54:25.157Z,52.08
2019-03-09T16:57:01.639Z,46.25
2019-03-09T16:59:37.571Z,38.23
2019-03-09T17:02:10.183Z,53.28
2019-03-09T17:04:43.344Z,107.75
2019-03-09T17:07:15.733Z,67.87
2019-03-09T17:09:46.195Z,103.92
2019-03-09T17:12:16.874Z,71.65
2019-03-09T17:14:50.591Z,38.17
2019-03-09T17:17:24.533Z,8.60
2019-03-09T17:19:55.223Z,14.95
2019-03-09T17:22:32.943Z,15.53
2019-03-09T17:25:00.321Z,25.70
2019-03-09T17:27:31.105Z,76.28
2019-03-09T17:30:02.609Z,55.15
2019-03-09T17:32:34.674Z,38.70
2019-03-09T17:35:08.421Z,38.65
2019-03-09T17:37:40.318Z,69.55
2019-03-09T17:40:14.029Z,72.10
2019-03-09T17:42:44.515Z,85.63
2019-03-09T17:45:34.207Z,70.10
2019-03-09T17:48:05.052Z,66.03
2019-03-09T17:50:35.624Z,65.93
2019-03-09T17:53:14.052Z,82.20
2019-03-09T17:55:48.923Z,81.27
2019-03-09T17:58:25.784Z,76.10
2019-03-09T18:00:59.291Z,58.60
2019-03-09T18:03:31.947Z,61.73
2019-03-09T18:06:02.367Z,67.40
2019-03-09T18:08:35.455Z,68.00
2019-03-09T18:11:09.532Z,68.17
2019-03-09T18:13:40.207Z,44.57
2019-03-09T18:16:12.602Z,14.23
2019-03-09T18:18:44.098Z,10.15
2019-03-09T18:21:15.123Z,14.77
2019-03-09T18:23:45.628Z,25.97
2019-03-09T18:26:16.015Z,29.60
2019-03-09T18:28:48.802Z,24.67
2019-03-09T18:31:19.250Z,16.23
2019-03-09T18:33:50.171Z,22.67
2019-03-09T18:36:20.539Z,44.87
2019-03-09T18:38:52.012Z,26.80
2019-03-09T18:41:24.122Z,16.77
2019-03-09T18:44:01.142Z,25.10
2019-03-09T18:46:33.841Z,19.10
2019-03-09T18:49:04.119Z,27.80
2019-03-09T18:51:34.464Z,17.17
2019-03-09T18:54:05.932Z,45.88
2019-03-09T18:56:37.378Z,33.20
2019-03-09T18:59:07.913Z,26.30
2019-03-09T19:01:38.423Z,37.73
2019-03-09T19:04:09.892Z,28.25
2019-03-09T19:06:41.328Z,23.37
2019-03-09T19:09:11.869Z,19.73
2019-03-09T19:11:42.384Z,22.80
2019-03-09T19:14:13.867Z,24.60
2019-03-09T19:16:44.385Z,51.30
2019-03-09T19:19:16.149Z,67.67
2019-03-09T19:21:46.675Z,29.50
2019-03-09T19:24:18.129Z,38.37
2019-03-09T19:26:48.383Z,73.37
2019-03-09T19:29:18.922Z,50.83
2019-03-09T19:31:49.261Z,67.13
2019-03-09T19:34:21.166Z,40.83
2019-03-09T19:36:51.427Z,48.13
2019-03-09T19:39:24.073Z,51.00
2019-03-09T19:41:55.496Z,50.80
2019-03-09T19:44:26.966Z,39.20
2019-03-09T19:47:00.959Z,61.10
2019-03-09T19:49:31.403Z,38.03
2019-03-09T19:52:07.743Z,40.93
2019-03-09T19:54:52.293Z,32.77
2019-03-09T19:57:29.317Z,32.33
2019-03-09T20:00:11.843Z,19.00
2019-03-09T20:02:42.124Z,13.50
2019-03-09T20:05:13.623Z,16.30
2019-03-09T20:07:44.122Z,14.03
2019-03-09T20:10:19.094Z,22.20
2019-03-09T20:12:49.468Z,17.07
2019-03-09T20:15:20.477Z,18.87
2019-03-09T20:17:52.602Z,19.60
2019-03-09T20:20:22.928Z,16.33
2019-03-09T20:22:54.371Z,26.40
2019-03-09T20:25:28.612Z,18.17
2019-03-09T20:28:00.339Z,20.47
2019-03-09T20:30:31.798Z,13.27
2019-03-09T20:33:02.594Z,15.33
2019-03-09T20:35:37.914Z,22.30
2019-03-09T20:38:08.297Z,13.57
2019-03-09T20:40:39.789Z,12.47
2019-03-09T20:43:13.132Z,12.60
2019-03-09T20:45:46.048Z,14.13
2019-03-09T20:48:16.548Z,15.53
2019-03-09T20:50:47.098Z,13.53
2019-03-09T20:53:18.485Z,9.20
2019-03-09T20:55:50.722Z,12.43
2019-03-09T20:58:26.373Z,16.30
2019-03-09T21:01:00.685Z,24.43
2019-03-09T21:03:34.349Z,20.70
2019-03-09T21:06:04.723Z,20.20
2019-03-09T21:08:36.157Z,33.13
2019-03-09T21:11:07.638Z,29.10
2019-03-09T21:13:38.190Z,31.83
2019-03-09T21:16:19.177Z,37.67
2019-03-09T21:18:52.721Z,29.63
2019-03-09T21:21:26.562Z,23.97
2019-03-09T21:23:58.688Z,16.70
2019-03-09T21:26:32.977Z,25.77
2019-03-09T21:29:05.071Z,16.93
2019-03-09T21:31:37.734Z,24.00
2019-03-09T21:34:08.555Z,24.27
2019-03-09T21:36:39.038Z,20.43
2019-03-09T21:39:09.544Z,13.13
2019-03-09T21:41:42.546Z,16.77
2019-03-09T21:44:13.994Z,11.43
2019-03-09T21:46:44.532Z,10.30
2019-03-09T21:49:17.600Z,8.97
2019-03-09T21:51:49.321Z,9.50
2019-03-09T21:54:19.803Z,12.50
2019-03-09T21:56:50.348Z,8.63
2019-03-09T21:59:21.232Z,9.57
2019-03-09T22:01:52.641Z,3.60
2019-03-09T22:04:23.144Z,9.10
2019-03-09T22:06:54.932Z,11.70
2019-03-09T22:09:25.377Z,21.27
2019-03-09T22:12:00.840Z,19.13
2019-03-09T22:14:32.744Z,11.03
2019-03-09T22:17:05.161Z,12.23
2019-03-09T22:19:37.995Z,11.27
2019-03-09T22:22:10.374Z,8.53
2019-03-09T22:24:41.815Z,10.27
2019-03-09T22:27:13.304Z,16.23
2019-03-09T22:29:45.014Z,14.23
2019-03-09T22:32:15.565Z,6.33
2019-03-09T22:34:46.991Z,9.50
2019-03-09T22:37:17.264Z,7.73
2019-03-09T22:39:48.665Z,8.20
2019-03-09T22:42:18.926Z,7.13
2019-03-09T22:44:50.350Z,7.87
2019-03-09T22:47:20.605Z,15.97
2019-03-09T22:49:52.023Z,4.57
2019-03-09T22:52:25.694Z,4.90
2019-03-09T22:54:58.941Z,3.47
2019-03-09T22:57:38.693Z,5.93
2019-03-09T23:00:17.587Z,4.80
2019-03-09T23:02:49.565Z,4.57
2019-03-09T23:05:20.998Z,2.97
2019-03-09T23:07:51.259Z,4.20
2019-03-09T23:10:27.654Z,2.23
2019-03-09T23:12:59.082Z,1.93
2019-03-09T23:15:31.102Z,10.23
2019-03-09T23:18:01.640Z,5.03
2019-03-09T23:20:32.786Z,4.77
2019-03-09T23:23:03.324Z,2.73
2019-03-09T23:25:34.757Z,2.33
2019-03-09T23:28:05.101Z,5.00
2019-03-09T23:30:35.516Z,3.13
2019-03-09T23:33:07.591Z,3.40
2019-03-09T23:35:39.037Z,5.17
2019-03-09T23:38:11.411Z,5.97
2019-03-09T23:40:42.845Z,8.77
2019-03-09T23:43:13.104Z,9.27
2019-03-09T23:45:43.605Z,6.43
2019-03-09T23:48:15.073Z,6.67
2019-03-09T23:50:45.321Z,5.77
2019-03-09T23:53:15.820Z,9.60
2019-03-09T23:55:47.257Z,7.97
2019-03-09T23:58:19.044Z,6.27
